AirNav   Everest Fuels
 
 593 users online  

8MO6 Pike County Memorial Hospital Heliport
Louisiana, Missouri, USA

GOING TO LOUISIANA?


FAA INFORMATION EFFECTIVE 07 NOVEMBER 2019

Location

FAA Identifier: 8MO6
Lat/Long: 39-26-26.8000N 091-03-50.8100W
39-26.446667N 091-03.846833W
39.4407778,-91.0641139
(estimated)
Elevation: 508 ft. / 155 m (estimated)
Variation: 02E (1985)
From city: 1 mile W of LOUISIANA, MO
Time zone: UTC -6 (UTC -5 during Daylight Saving Time)
Zip code: 63353

Heliport Operations

Heliport use: Private use, MEDICAL USE.
Activation date: 05/1991
Control tower: no
ARTCC: KANSAS CITY CENTER
FSS: COLUMBIA FLIGHT SERVICE STATION
Attendance: UNATNDD
Wind indicator: yes
Segmented circle: no
Lights: REQ PERIMETER LGTS 155.340 / 155.115, OR CALL 573-754-5531

Heliport Communications

WX AWOS-3 at PPQ (18 nm NE): 118.525 (217-285-1428)

Nearby radio navigation aids

VOR radial/distance  VOR name  Freq  Var
UINr153/26.4QUINCY VORTAC113.6005E

Heliport Services

Runway Information

Helipad H1

Dimensions: 30 x 30 ft. / 9 x 9 m
Surface: concrete
Runway edge lights: PERI
Latitude: 39-26.446667N
Longitude: 091-03.846833W
Elevation: 508.0 ft.
Traffic pattern: leftleft

Heliport Ownership and Management from official FAA records

Ownership: Privately-owned
Owner: PIKE COUNTY MEMORIAL HOSPITAL
2305 GEORGIA STREET
LOUISIANA, MO 63353
Phone 573-754-5531
Manager: REESA VANHOOSER BSN, RN
2305 GEORGIA STREET
LOUISIANA, MO 63353
Phone 573-754-5531
EXT 161

Additional Remarks

OWNER DESIRES ARPT NOT BE CHARTED.
FOR CD CTC KANSAS CITY ARTCC AT 913-254-8508.

Instrument Procedures

There are no published instrument procedures at 8MO6.

Some nearby airports with instrument procedures:

H19 - Bowling Green Municipal Airport (8 nm SW)
KPPQ - Pittsfield Penstone Municipal Airport (18 nm NE)
KHAE - Hannibal Regional Airport (24 nm NW)
KUIN - Quincy Regional Airport-Baldwin Field (31 nm N)
K52 - Cpt Ben Smith Airfield - Monroe City (33 nm W)
 
Loc | Ops | Rwys | IFR | FBO | Links
Com | Nav | Svcs | Stats | Notes

Kansas City Aviation Department
 
Area around 8MO6 (Pike County Memorial Hospital Heliport)
 
Road maps at: MapQuest Bing Google
 
Aerial photo
No photo
 
Sectional chart

 
Airport distance calculator
Flying to Pike County Memorial Hospital Heliport? Find the distance to fly.

From to 8MO6

Sunrise and sunset
Times for 19-Nov-2019
 Local
(UTC-6)
 Zulu
(UTC)
Morning civil twilight06:2512:25
Sunrise06:5412:54
Sunset16:4622:46
Evening civil twilight17:1523:15

Current date and time
Zulu (UTC)  20-Nov-2019 05:37:11
Local (UTC-6)  19-Nov-2019 23:37:11
 
METAR
KPPQ 
17nm NE 
200515Z AUTO 00000KT 2SM CLR 03/03 A3004 RMK AO2 T00250025
KHAE 
24nm NW 
200515Z AUTO 12004KT 7SM CLR 05/03 A3002 RMK AO2
KUIN 
31nm N 
200454Z AUTO 13006KT 5SM BR CLR 03/02 A3001 RMK AO2 SLP165 T00330017
TAF
KUIN 
31nm N 
192116Z 1921/2018 31012G20KT P6SM SKC FM192300 VRB03KT P6SM SKC FM200900 13005KT 5SM BR BKN250 FM201400 13008KT P6SM BKN250 FM201700 14011G17KT P6SM SCT250
NOTAMs
Click for the latest NOTAMs
NOTAMs are issued by the DoD/FAA and will open in a separate window not controlled by AirNav.

 

 
 

Would you like to see your business listed on this page?

 If your business provides an interesting product or service to pilots, flight crews, aircraft, or users of the Pike County Memorial Hospital Heliport, you should consider listing it here.  To start the listing process, click on the button below
 
Add a business
 

Other Pages about Pike County Memorial Hospital Heliport

Update a link
 
Copyright © AirNav, LLC. All rights reserved. Privacy Policy  Contact